This is the latest recevied weather packets stored in our database for station/object SV2AHT-14. If no packets are shown the sender has not sent any weather packets the latest 10 day(s).
| Time | Temp. | Humidity | Pressure | Rain* | Wind** | Luminosity | Snow |
|---|---|---|---|---|---|---|---|
| 1777825495 | 5° C | 69% | 814.5 hPa | - | - | - | - |
| 1777825177 | 5° C | 69% | 814.5 hPa | - | - | - | - |
| 1777823377 | 5.56° C | 68% | 814.6 hPa | - | - | - | - |
| 1777817977 | 7.78° C | 70% | 815 hPa | - | - | - | - |
| 1777817077 | 7.78° C | 71% | 814.4 hPa | - | - | - | - |
| 1777744167 | 4.44° C | 67% | 815.8 hPa | - | - | - | - |
| 1777577873 | 3.89° C | 68% | 815.2 hPa | - | - | - | - |
| 1777574273 | 3.89° C | 66% | 815.6 hPa | - | - | - | - |
| 1777555921 | 15.56° C | 44% | 816 hPa | - | - | - | - |
| 1777552321 | 15° C | 42% | 816.7 hPa | - | - | - | - |
| 1777547823 | 15.56° C | 46% | 817.3 hPa | - | - | - | - |
| 1777546923 | 15.56° C | 45% | 817.4 hPa | - | - | - | - |
| 1777546023 | 15° C | 45% | 817.4 hPa | - | - | - | - |
| 1777542425 | 13.89° C | 47% | 817.8 hPa | - | - | - | - |
| 1777538821 | 14.44° C | 47% | 818.2 hPa | - | - | - | - |
| 1777531620 | 11.67° C | 58% | 817.8 hPa | - | - | - | - |
| 1777507473 | 9.44° C | 63% | 817.9 hPa | - | - | - | - |
| 1777506567 | 9.44° C | 62% | 818 hPa | - | - | - | - |
| 1777505667 | 9.44° C | 62% | 818.1 hPa | - | - | - | - |
| 1777504801 | 9.44° C | 61% | 818.1 hPa | - | - | - | - |
| 1777504767 | 9.44° C | 61% | 818.1 hPa | - | - | - | - |
| 1777502966 | 9.44° C | 62% | 818.2 hPa | - | - | - | - |
| 1777497573 | 11.11° C | 60% | 818.5 hPa | - | - | - | - |
| 1777496673 | 10.56° C | 59% | 818.7 hPa | - | - | - | - |
| 1777495773 | 10.56° C | 58% | 818.6 hPa | - | - | - | - |
* Rain since midnight (hover to see other rain measurements)
** Current wind speed in m/s (hover to see current wind gust speed)